createdAt,value
2018-10-09T00:02:27.491Z,98607.02
2018-10-09T00:04:56.203Z,98614.55
2018-10-09T00:07:25.679Z,98615.89
2018-10-09T00:09:54.554Z,98625.86
2018-10-09T00:12:23.424Z,98621.55
2018-10-09T00:14:53.041Z,98608.63
2018-10-09T00:17:23.393Z,98614.56
2018-10-09T00:19:52.175Z,98613.22
2018-10-09T00:22:21.660Z,98613.22
2018-10-09T00:24:50.883Z,98619.94
2018-10-09T00:27:20.056Z,98611.31
2018-10-09T00:29:49.299Z,98612.38
2018-10-09T00:32:19.420Z,98605.39
2018-10-09T00:34:48.860Z,98604.05
2018-10-09T00:37:17.593Z,98597.02
2018-10-09T00:39:47.179Z,98599.47
2018-10-09T00:42:16.728Z,98608.64
2018-10-09T00:44:45.529Z,98602.16
2018-10-09T00:47:14.198Z,98604.86
2018-10-09T00:49:43.106Z,98596.23
2018-10-09T00:52:11.929Z,98601.63
2018-10-09T00:54:40.754Z,98603.51
2018-10-09T00:57:09.750Z,98611.31
2018-10-09T00:59:39.871Z,98599.19
2018-10-09T01:02:09.285Z,98615.64
2018-10-09T01:04:37.975Z,98614.80
2018-10-09T01:07:06.988Z,98605.89
2018-10-09T01:09:35.859Z,98607.23
2018-10-09T01:12:04.728Z,98602.38
2018-10-09T01:14:33.444Z,98603.15
2018-10-09T01:17:02.364Z,98592.88
2018-10-09T01:19:30.997Z,98597.45
2018-10-09T01:21:59.966Z,98603.09
2018-10-09T01:24:30.761Z,98605.48
2018-10-09T01:27:00.400Z,98606.00
2018-10-09T01:29:29.905Z,98604.66
2018-10-09T01:31:59.009Z,98603.02
2018-10-09T01:34:27.819Z,98599.77
2018-10-09T01:36:57.397Z,98599.47
2018-10-09T01:39:26.109Z,98598.11
2018-10-09T01:41:54.921Z,98601.87
2018-10-09T01:44:25.061Z,98602.62
2018-10-09T01:46:54.301Z,98591.27
2018-10-09T01:49:23.730Z,98586.66
2018-10-09T01:51:52.622Z,98586.63
2018-10-09T01:54:21.608Z,98591.75
2018-10-09T01:56:50.294Z,98586.62
2018-10-09T01:59:19.480Z,98589.03
2018-10-09T02:01:48.199Z,98597.41
2018-10-09T02:04:17.042Z,98592.00
2018-10-09T02:06:46.071Z,98592.02
2018-10-09T02:09:15.101Z,98584.69
2018-10-09T02:11:43.747Z,98586.03
2018-10-09T02:14:12.957Z,98585.47
2018-10-09T02:16:42.750Z,98574.38
2018-10-09T02:19:12.254Z,98577.87
2018-10-09T02:21:41.374Z,98578.66
2018-10-09T02:24:10.540Z,98571.36
2018-10-09T02:26:39.469Z,98568.66
2018-10-09T02:29:08.296Z,98568.67
2018-10-09T02:31:37.455Z,98573.81
2018-10-09T02:34:06.156Z,98559.75
2018-10-09T02:36:34.910Z,98567.60
2018-10-09T02:39:04.533Z,98560.33
2018-10-09T02:41:33.297Z,98567.38
2018-10-09T02:44:02.661Z,98560.36
2018-10-09T02:46:31.616Z,98567.64
2018-10-09T02:49:00.681Z,98565.22
2018-10-09T02:51:29.448Z,98562.53
2018-10-09T02:53:58.325Z,98552.03
2018-10-09T02:56:27.125Z,98552.86
2018-10-09T02:58:56.980Z,98549.38
2018-10-09T03:01:26.012Z,98547.82
2018-10-09T03:03:55.307Z,98551.94
2018-10-09T03:06:24.279Z,98554.95
2018-10-09T03:08:52.945Z,98565.23
2018-10-09T03:11:22.870Z,98566.37
2018-10-09T03:13:52.184Z,98570.71
2018-10-09T03:16:21.233Z,98561.33
2018-10-09T03:18:50.105Z,98566.98
2018-10-09T03:21:18.855Z,98561.05
2018-10-09T03:23:48.130Z,98558.94
2018-10-09T03:26:17.085Z,98561.64
2018-10-09T03:28:46.495Z,98565.43
2018-10-09T03:31:15.359Z,98563.50
2018-10-09T03:33:44.096Z,98572.11
2018-10-09T03:36:13.170Z,98568.84
2018-10-09T03:38:42.195Z,98569.12
2018-10-09T03:41:11.155Z,98575.30
2018-10-09T03:43:39.866Z,98572.64
2018-10-09T03:46:09.150Z,98572.35
2018-10-09T03:48:38.020Z,98574.29
2018-10-09T03:51:06.901Z,98568.13
2018-10-09T03:53:35.720Z,98565.72
2018-10-09T03:56:04.820Z,98566.27
2018-10-09T03:58:34.136Z,98564.39
2018-10-09T04:01:03.275Z,98558.75
2018-10-09T04:03:32.768Z,98564.96
2018-10-09T04:06:01.979Z,98554.21
2018-10-09T04:08:32.021Z,98558.50
2018-10-09T04:11:01.262Z,98562.02
2018-10-09T04:13:30.164Z,98564.17
2018-10-09T04:15:58.872Z,98562.31
2018-10-09T04:18:28.092Z,98564.45
2018-10-09T04:20:57.380Z,98566.36
2018-10-09T04:23:26.108Z,98569.58
2018-10-09T04:25:54.995Z,98579.28
2018-10-09T04:28:23.940Z,98581.44
2018-10-09T04:30:52.797Z,98577.67
2018-10-09T04:33:22.972Z,98575.23
2018-10-09T04:35:52.336Z,98582.23
2018-10-09T04:38:21.577Z,98585.46
2018-10-09T04:40:50.245Z,98591.39
2018-10-09T04:43:21.207Z,98594.35
2018-10-09T04:45:51.420Z,98584.39
2018-10-09T04:48:20.496Z,98581.13
2018-10-09T04:50:49.936Z,98589.22
2018-10-09T04:53:18.667Z,98584.11
2018-10-09T04:55:47.381Z,98587.87
2018-10-09T04:58:16.816Z,98586.77
2018-10-09T05:00:45.931Z,98586.52
2018-10-09T05:03:14.971Z,98595.67
2018-10-09T05:05:44.230Z,98594.57
2018-10-09T05:08:13.430Z,98590.81
2018-10-09T05:10:42.713Z,98599.96
2018-10-09T05:13:12.967Z,98598.90
2018-10-09T05:15:42.097Z,98598.08
2018-10-09T05:18:10.996Z,98596.16
2018-10-09T05:20:39.653Z,98597.79
2018-10-09T05:23:08.653Z,98598.84
2018-10-09T05:25:37.932Z,98619.85
2018-10-09T05:28:07.415Z,98619.28
2018-10-09T05:30:36.557Z,98611.17
2018-10-09T05:33:05.275Z,98617.34
2018-10-09T05:35:34.160Z,98609.81
2018-10-09T05:38:03.115Z,98614.11
2018-10-09T05:40:32.168Z,98613.03
2018-10-09T05:43:01.073Z,98614.63
2018-10-09T05:45:29.824Z,98620.27
2018-10-09T05:47:59.012Z,98623.79
2018-10-09T05:50:28.465Z,98637.02
2018-10-09T05:52:57.518Z,98636.45
2018-10-09T05:55:26.683Z,98647.76
2018-10-09T05:57:55.796Z,98648.58
2018-10-09T06:00:25.323Z,98660.15
2018-10-09T06:02:54.272Z,98659.31
2018-10-09T06:05:23.377Z,98656.31
2018-10-09T06:07:52.813Z,98658.19
2018-10-09T06:10:21.876Z,98660.37
2018-10-09T06:12:51.188Z,98663.07
2018-10-09T06:15:20.453Z,98665.77
2018-10-09T06:17:49.608Z,98671.92
2018-10-09T06:20:18.922Z,98667.91
2018-10-09T06:22:48.123Z,98664.92
2018-10-09T06:25:17.303Z,98661.12
2018-10-09T06:27:46.087Z,98655.41
2018-10-09T06:30:14.862Z,98655.08
2018-10-09T06:32:43.665Z,98655.59
2018-10-09T06:35:12.471Z,98662.80
2018-10-09T06:37:41.479Z,98655.20
2018-10-09T06:40:10.716Z,98654.63
2018-10-09T06:42:39.540Z,98650.80
2018-10-09T06:45:09.208Z,98655.59
2018-10-09T06:47:38.334Z,98645.72
2018-10-09T06:50:07.582Z,98646.73
2018-10-09T06:52:37.893Z,98642.28
2018-10-09T06:55:06.996Z,98647.72
2018-10-09T06:57:37.313Z,98642.12
2018-10-09T07:00:06.122Z,98636.52
2018-10-09T07:02:35.877Z,98638.96
2018-10-09T07:05:04.942Z,98639.97
2018-10-09T07:07:33.748Z,98628.50
2018-10-09T07:10:02.900Z,98639.14
2018-10-09T07:12:32.504Z,98639.33
2018-10-09T07:15:01.797Z,98641.88
2018-10-09T07:17:31.032Z,98636.74
2018-10-09T07:20:00.163Z,98640.55
2018-10-09T07:22:29.074Z,98639.84
2018-10-09T07:24:58.896Z,98639.34
2018-10-09T07:27:28.095Z,98641.70
2018-10-09T07:29:57.063Z,98638.48
2018-10-09T07:32:26.283Z,98648.03
2018-10-09T07:34:55.488Z,98642.06
2018-10-09T07:37:24.649Z,98644.16
2018-10-09T07:39:53.602Z,98643.13
2018-10-09T07:42:23.239Z,98639.28
2018-10-09T07:44:51.919Z,98642.88
2018-10-09T07:47:20.703Z,98645.43
2018-10-09T07:49:49.853Z,98640.64
2018-10-09T07:52:18.777Z,98650.86
2018-10-09T07:54:47.613Z,98649.56
2018-10-09T07:57:16.362Z,98651.03
2018-10-09T07:59:45.743Z,98651.84
2018-10-09T08:02:14.913Z,98652.61
2018-10-09T08:04:44.296Z,98652.50
2018-10-09T08:07:13.707Z,98655.56
2018-10-09T08:09:42.752Z,98654.19
2018-10-09T08:12:12.032Z,98659.75
2018-10-09T08:14:40.799Z,98658.98
2018-10-09T08:17:10.508Z,98665.02
2018-10-09T08:19:39.256Z,98653.37
2018-10-09T08:22:08.092Z,98659.56
2018-10-09T08:24:37.047Z,98659.95
2018-10-09T08:27:06.226Z,98657.94
2018-10-09T08:29:35.693Z,98658.95
2018-10-09T08:32:04.416Z,98667.72
2018-10-09T08:34:33.959Z,98669.50
2018-10-09T08:37:03.816Z,98671.27
2018-10-09T08:39:32.519Z,98674.32
2018-10-09T08:42:01.537Z,98670.39
2018-10-09T08:44:30.944Z,98672.86
2018-10-09T08:47:00.167Z,98675.06
2018-10-09T08:49:29.203Z,98676.07
2018-10-09T08:51:57.907Z,98679.55
2018-10-09T08:54:26.949Z,98687.36
2018-10-09T08:56:56.050Z,98684.09
2018-10-09T08:59:25.133Z,98686.19
2018-10-09T09:01:54.295Z,98686.84
2018-10-09T09:04:23.200Z,98675.53
2018-10-09T09:06:52.905Z,98678.78
2018-10-09T09:09:22.014Z,98679.65
2018-10-09T09:11:51.358Z,98681.70
2018-10-09T09:14:20.152Z,98687.33
2018-10-09T09:16:49.734Z,98694.48
2018-10-09T09:19:18.959Z,98690.89
2018-10-09T09:21:47.833Z,98691.69
2018-10-09T09:24:17.417Z,98695.55
2018-10-09T09:26:46.223Z,98695.23
2018-10-09T09:29:14.888Z,98683.84
2018-10-09T09:31:44.095Z,98685.33
2018-10-09T09:34:12.977Z,98683.39
2018-10-09T09:36:42.604Z,98678.03
2018-10-09T09:39:11.900Z,98681.08
2018-10-09T09:41:41.938Z,98687.47
2018-10-09T09:44:11.352Z,98680.05
2018-10-09T09:46:40.300Z,98672.83
2018-10-09T09:49:09.793Z,98678.45
2018-10-09T09:51:38.847Z,98668.75
2018-10-09T09:54:08.094Z,98664.94
2018-10-09T09:56:37.625Z,98668.31
2018-10-09T09:59:06.672Z,98663.00
2018-10-09T10:01:43.642Z,98658.20
2018-10-09T10:04:14.768Z,98658.05
2018-10-09T10:06:44.176Z,98661.14
2018-10-09T10:09:14.229Z,98648.59
2018-10-09T10:11:44.394Z,98649.36
2018-10-09T10:14:13.223Z,98645.81
2018-10-09T10:16:42.968Z,98651.48
2018-10-09T10:19:13.187Z,98651.16
2018-10-09T10:21:42.318Z,98643.41
2018-10-09T10:24:11.549Z,98637.19
2018-10-09T10:26:40.661Z,98636.01
2018-10-09T10:29:09.692Z,98631.11
2018-10-09T10:31:38.400Z,98632.93
2018-10-09T10:34:07.427Z,98625.49
2018-10-09T10:36:36.143Z,98631.00
2018-10-09T10:39:07.044Z,98630.84
2018-10-09T10:41:35.979Z,98624.71
2018-10-09T10:44:05.296Z,98623.88
2018-10-09T10:46:42.354Z,98622.59
2018-10-09T10:49:13.936Z,98621.06
2018-10-09T10:51:42.665Z,98622.20
2018-10-09T10:54:12.802Z,98623.08
2018-10-09T10:56:42.045Z,98614.89
2018-10-09T10:59:10.938Z,98604.39
2018-10-09T11:01:40.372Z,98603.61
2018-10-09T11:04:09.455Z,98606.66
2018-10-09T11:06:38.314Z,98608.33
2018-10-09T11:09:10.216Z,98602.08
2018-10-09T11:11:39.224Z,98602.31
2018-10-09T11:14:08.651Z,98605.33
2018-10-09T11:16:38.775Z,98590.84
2018-10-09T11:19:09.053Z,98591.50
2018-10-09T11:21:38.106Z,98583.59
2018-10-09T11:24:07.055Z,98589.24
2018-10-09T11:26:36.518Z,98581.16
2018-10-09T11:29:05.875Z,98582.17
2018-10-09T11:31:35.581Z,98586.50
2018-10-09T11:34:04.347Z,98582.13
2018-10-09T11:36:33.673Z,98575.66
2018-10-09T11:39:02.463Z,98580.92
2018-10-09T11:41:31.887Z,98568.38
2018-10-09T11:44:00.763Z,98563.53
2018-10-09T11:46:30.026Z,98563.61
2018-10-09T11:48:59.634Z,98557.89
2018-10-09T11:51:28.819Z,98562.19
2018-10-09T11:53:57.548Z,98558.69
2018-10-09T11:56:27.295Z,98555.97
2018-10-09T11:58:56.102Z,98556.61
2018-10-09T12:01:24.979Z,98543.44
2018-10-09T12:03:54.209Z,98540.36
2018-10-09T12:06:23.214Z,98534.95
2018-10-09T12:08:52.623Z,98524.92
2018-10-09T12:11:21.658Z,98529.05
2018-10-09T12:13:50.395Z,98522.42
2018-10-09T12:16:19.219Z,98529.80
2018-10-09T12:18:47.951Z,98522.81
2018-10-09T12:21:17.214Z,98520.43
2018-10-09T12:23:46.850Z,98519.95
2018-10-09T12:26:15.597Z,98519.94
2018-10-09T12:28:45.271Z,98514.06
2018-10-09T12:31:14.288Z,98514.77
2018-10-09T12:33:44.500Z,98510.14
2018-10-09T12:36:14.024Z,98509.05
2018-10-09T12:38:43.050Z,98505.20
2018-10-09T12:41:11.851Z,98504.00
2018-10-09T12:43:40.638Z,98501.89
2018-10-09T12:46:09.734Z,98502.84
2018-10-09T12:48:38.550Z,98504.31
2018-10-09T12:51:07.265Z,98502.75
2018-10-09T12:53:36.695Z,98506.55
2018-10-09T12:56:05.667Z,98500.08
2018-10-09T12:58:34.623Z,98506.27
2018-10-09T13:01:03.199Z,98505.42
2018-10-09T13:03:31.987Z,98503.85
2018-10-09T13:06:01.661Z,98497.36
2018-10-09T13:08:30.456Z,98492.69
2018-10-09T13:11:01.494Z,98491.23
2018-10-09T13:13:30.390Z,98493.91
2018-10-09T13:15:59.447Z,98488.06
2018-10-09T13:18:29.280Z,98495.61
2018-10-09T13:20:58.100Z,98491.17
2018-10-09T13:23:27.081Z,98491.27
2018-10-09T13:25:57.263Z,98473.20
2018-10-09T13:28:26.445Z,98472.50
2018-10-09T13:30:55.921Z,98466.20
2018-10-09T13:33:25.013Z,98459.34
2018-10-09T13:35:54.199Z,98458.02
2018-10-09T13:38:23.101Z,98457.20
2018-10-09T13:40:52.995Z,98454.00
2018-10-09T13:43:21.918Z,98456.82
2018-10-09T13:45:51.120Z,98453.95
2018-10-09T13:48:20.342Z,98460.27
2018-10-09T13:50:49.311Z,98461.03
2018-10-09T13:53:18.680Z,98459.67
2018-10-09T13:55:47.945Z,98457.11
2018-10-09T13:58:17.134Z,98453.20
2018-10-09T14:00:46.362Z,98449.61
2018-10-09T14:03:15.394Z,98449.14
2018-10-09T14:05:44.854Z,98443.28
2018-10-09T14:08:13.639Z,98441.02
2018-10-09T14:10:43.365Z,98436.12
2018-10-09T14:13:12.209Z,98432.09
2018-10-09T14:15:41.080Z,98429.06
2018-10-09T14:18:10.028Z,98432.56
2018-10-09T14:20:39.142Z,98433.13
2018-10-09T14:23:08.507Z,98422.09
2018-10-09T14:25:37.475Z,98425.06
2018-10-09T14:28:06.993Z,98420.32
2018-10-09T14:30:36.064Z,98413.45
2018-10-09T14:33:05.289Z,98416.21
2018-10-09T14:35:34.374Z,98415.73
2018-10-09T14:38:03.813Z,98414.64
2018-10-09T14:40:32.898Z,98418.97
2018-10-09T14:43:02.190Z,98413.20
2018-10-09T14:45:31.569Z,98421.00
2018-10-09T14:48:00.666Z,98418.80
2018-10-09T14:50:29.486Z,98420.40
2018-10-09T14:52:59.237Z,98415.28
2018-10-09T14:55:28.205Z,98413.02
2018-10-09T14:57:56.834Z,98398.56
2018-10-09T15:00:25.801Z,98405.99
2018-10-09T15:02:55.015Z,98408.25
2018-10-09T15:05:24.037Z,98403.45
2018-10-09T15:07:53.103Z,98408.40
2018-10-09T15:10:22.700Z,98410.62
2018-10-09T15:12:51.515Z,98411.64
2018-10-09T15:15:20.309Z,98411.08
2018-10-09T15:17:49.309Z,98414.30
2018-10-09T15:20:18.246Z,98411.22
2018-10-09T15:22:47.042Z,98410.02
2018-10-09T15:25:16.013Z,98410.94
2018-10-09T15:27:45.283Z,98415.57
2018-10-09T15:30:14.590Z,98412.88
2018-10-09T15:32:43.315Z,98414.02
2018-10-09T15:35:13.074Z,98419.36
2018-10-09T15:37:42.714Z,98419.86
2018-10-09T15:40:12.447Z,98420.02
2018-10-09T15:42:41.228Z,98423.58
2018-10-09T15:45:11.105Z,98414.52
2018-10-09T15:47:40.030Z,98414.61
2018-10-09T15:50:09.319Z,98416.44
2018-10-09T15:52:38.511Z,98423.38
2018-10-09T15:55:07.319Z,98427.06
2018-10-09T15:57:35.969Z,98431.30
2018-10-09T16:00:05.799Z,98430.20
2018-10-09T16:02:35.315Z,98437.80
2018-10-09T16:05:04.585Z,98431.94
2018-10-09T16:07:33.745Z,98433.08
2018-10-09T16:10:03.045Z,98435.98
2018-10-09T16:12:32.049Z,98428.55
2018-10-09T16:15:01.115Z,98432.99
2018-10-09T16:17:29.939Z,98430.48
2018-10-09T16:19:58.934Z,98433.15
2018-10-09T16:22:28.042Z,98437.14
2018-10-09T16:24:57.391Z,98433.54
2018-10-09T16:27:27.246Z,98442.38
2018-10-09T16:29:56.077Z,98441.83
2018-10-09T16:32:25.300Z,98446.41
2018-10-09T16:34:53.986Z,98440.63
2018-10-09T16:37:22.692Z,98447.60
2018-10-09T16:39:51.733Z,98447.95
2018-10-09T16:42:20.994Z,98444.34
2018-10-09T16:44:50.064Z,98440.67
2018-10-09T16:47:19.711Z,98452.45
2018-10-09T16:49:48.714Z,98446.60
2018-10-09T16:52:17.888Z,98450.80
2018-10-09T16:54:47.158Z,98449.28
2018-10-09T16:57:17.366Z,98443.90
2018-10-09T16:59:46.352Z,98443.49
2018-10-09T17:02:15.205Z,98449.05
2018-10-09T17:04:44.017Z,98455.66
2018-10-09T17:07:13.262Z,98457.06
2018-10-09T17:09:43.420Z,98460.41
2018-10-09T17:12:12.712Z,98465.05
2018-10-09T17:14:41.617Z,98470.37
2018-10-09T17:17:10.980Z,98469.44
2018-10-09T17:19:40.570Z,98475.56
2018-10-09T17:22:10.916Z,98477.33
2018-10-09T17:24:39.896Z,98478.66
2018-10-09T17:27:09.044Z,98483.95
2018-10-09T17:29:38.785Z,98480.97
2018-10-09T17:32:08.030Z,98476.45
2018-10-09T17:34:37.782Z,98489.69
2018-10-09T17:37:06.814Z,98487.77
2018-10-09T17:39:35.812Z,98490.84
2018-10-09T17:42:05.213Z,98496.42
2018-10-09T17:44:34.459Z,98489.07
2018-10-09T17:47:07.433Z,98493.49
2018-10-09T17:49:38.131Z,98497.61
2018-10-09T17:52:07.159Z,98491.08
2018-10-09T17:54:36.291Z,98502.48
2018-10-09T17:57:05.593Z,98507.63
2018-10-09T17:59:34.551Z,98502.48
2018-10-09T18:02:03.931Z,98506.90
2018-10-09T18:04:33.180Z,98507.23
2018-10-09T18:07:02.432Z,98508.70
2018-10-09T18:09:31.578Z,98504.06
2018-10-09T18:12:01.002Z,98496.66
2018-10-09T18:14:30.071Z,98501.41
2018-10-09T18:16:59.454Z,98502.44
2018-10-09T18:19:29.406Z,98506.86
2018-10-09T18:21:58.175Z,98505.63
2018-10-09T18:24:27.096Z,98511.54
2018-10-09T18:26:56.166Z,98509.34
2018-10-09T18:29:25.315Z,98512.97
2018-10-09T18:31:54.511Z,98511.73
2018-10-09T18:34:25.133Z,98512.72
2018-10-09T18:36:55.391Z,98515.72
2018-10-09T18:39:24.306Z,98515.07
2018-10-09T18:41:53.814Z,98514.98
2018-10-09T18:44:22.885Z,98512.63
2018-10-09T18:46:52.027Z,98518.94
2018-10-09T18:49:21.086Z,98519.27
2018-10-09T18:51:50.287Z,98518.45
2018-10-09T18:54:19.532Z,98522.16
2018-10-09T18:56:48.782Z,98518.30
2018-10-09T18:59:17.932Z,98520.21
2018-10-09T19:01:46.781Z,98517.63
2018-10-09T19:04:17.291Z,98516.88
2018-10-09T19:06:46.580Z,98521.27
2018-10-09T19:09:16.039Z,98521.71
2018-10-09T19:11:45.266Z,98523.73
2018-10-09T19:14:15.390Z,98529.94
2018-10-09T19:16:44.680Z,98535.11
2018-10-09T19:19:13.940Z,98537.20
2018-10-09T19:21:42.956Z,98538.33
2018-10-09T19:24:12.589Z,98539.34
2018-10-09T19:26:42.021Z,98538.03
2018-10-09T19:29:11.825Z,98545.33
2018-10-09T19:31:40.780Z,98548.05
2018-10-09T19:34:09.921Z,98560.09
2018-10-09T19:36:39.380Z,98558.05
2018-10-09T19:39:11.052Z,98558.50
2018-10-09T19:41:40.495Z,98561.66
2018-10-09T19:44:09.423Z,98569.59
2018-10-09T19:46:39.442Z,98562.67
2018-10-09T19:49:08.235Z,98565.92
2018-10-09T19:51:37.522Z,98563.52
2018-10-09T19:54:06.767Z,98555.08
2018-10-09T19:56:35.880Z,98555.58
2018-10-09T19:59:05.506Z,98552.59
2018-10-09T20:01:34.312Z,98551.58
2018-10-09T20:04:03.389Z,98559.25
2018-10-09T20:06:32.748Z,98551.50
2018-10-09T20:09:02.315Z,98556.50
2018-10-09T20:11:31.228Z,98564.34
2018-10-09T20:14:01.392Z,98565.12
2018-10-09T20:16:30.831Z,98569.19
2018-10-09T20:18:59.845Z,98561.43
2018-10-09T20:21:29.048Z,98563.19
2018-10-09T20:23:58.285Z,98567.64
2018-10-09T20:26:27.371Z,98567.98
2018-10-09T20:28:56.991Z,98566.11
2018-10-09T20:31:26.548Z,98564.75
2018-10-09T20:33:56.238Z,98559.61
2018-10-09T20:36:25.368Z,98563.55
2018-10-09T20:38:55.110Z,98570.14
2018-10-09T20:41:23.893Z,98566.79
2018-10-09T20:43:53.127Z,98566.79
2018-10-09T20:46:22.278Z,98567.03
2018-10-09T20:48:51.447Z,98564.70
2018-10-09T20:51:20.788Z,98565.34
2018-10-09T20:53:49.986Z,98573.04
2018-10-09T20:56:19.071Z,98565.52
2018-10-09T20:58:48.457Z,98566.25
2018-10-09T21:01:17.666Z,98564.61
2018-10-09T21:03:46.853Z,98562.17
2018-10-09T21:06:17.898Z,98571.19
2018-10-09T21:08:47.193Z,98560.27
2018-10-09T21:11:16.505Z,98560.70
2018-10-09T21:13:45.612Z,98562.05
2018-10-09T21:16:15.017Z,98559.00
2018-10-09T21:18:44.208Z,98561.20
2018-10-09T21:21:13.613Z,98561.59
2018-10-09T21:23:42.511Z,98559.22
2018-10-09T21:26:11.865Z,98561.22
2018-10-09T21:28:40.652Z,98555.03
2018-10-09T21:31:10.537Z,98558.21
2018-10-09T21:33:39.648Z,98560.11
2018-10-09T21:36:08.814Z,98557.45
2018-10-09T21:38:38.047Z,98560.42
2018-10-09T21:41:07.026Z,98559.89
2018-10-09T21:43:35.975Z,98558.24
2018-10-09T21:46:05.553Z,98565.29
2018-10-09T21:48:34.371Z,98561.81
2018-10-09T21:51:03.305Z,98564.89
2018-10-09T21:53:32.352Z,98559.80
2018-10-09T21:56:01.033Z,98560.59
2018-10-09T21:58:30.731Z,98560.37
2018-10-09T22:01:04.993Z,98556.90
2018-10-09T22:03:34.032Z,98555.86
2018-10-09T22:06:03.642Z,98555.26
2018-10-09T22:08:32.443Z,98552.55
2018-10-09T22:11:01.668Z,98552.89
2018-10-09T22:13:30.986Z,98548.28
2018-10-09T22:16:00.294Z,98550.48
2018-10-09T22:21:25.316Z,98546.48
2018-10-09T22:23:54.982Z,98547.06
2018-10-09T22:26:23.702Z,98552.76
2018-10-09T22:28:52.938Z,98551.75
2018-10-09T22:31:22.410Z,98551.51
2018-10-09T22:33:51.340Z,98547.99
2018-10-09T22:36:20.606Z,98549.42
2018-10-09T22:38:49.384Z,98557.23
2018-10-09T22:41:18.092Z,98550.78
2018-10-09T22:43:47.189Z,98554.01
2018-10-09T22:46:16.426Z,98547.55
2018-10-09T22:48:45.808Z,98549.45
2018-10-09T22:51:14.754Z,98540.58
2018-10-09T22:53:43.669Z,98541.94
2018-10-09T22:56:12.352Z,98543.81
2018-10-09T22:58:41.137Z,98544.92
2018-10-09T23:01:10.031Z,98541.70
2018-10-09T23:03:38.570Z,98544.69
2018-10-09T23:06:07.326Z,98542.52
2018-10-09T23:08:36.471Z,98540.41
2018-10-09T23:11:05.686Z,98541.23
2018-10-09T23:13:34.924Z,98530.20
2018-10-09T23:16:04.116Z,98534.48
2018-10-09T23:18:33.021Z,98530.74
2018-10-09T23:21:02.591Z,98535.59
2018-10-09T23:23:31.690Z,98534.25
2018-10-09T23:26:00.613Z,98534.53
2018-10-09T23:28:30.355Z,98538.57
2018-10-09T23:30:59.451Z,98536.13
2018-10-09T23:33:28.591Z,98540.17
2018-10-09T23:35:57.604Z,98539.11
2018-10-09T23:38:27.082Z,98531.55
2018-10-09T23:40:56.450Z,98522.69
2018-10-09T23:43:25.517Z,98527.27
2018-10-09T23:45:54.775Z,98523.76
2018-10-09T23:48:23.345Z,98514.61
2018-10-09T23:50:52.213Z,98515.14
2018-10-09T23:53:21.536Z,98510.26
2018-10-09T23:55:50.731Z,98511.34
2018-10-09T23:58:20.087Z,98509.77
